Time;durP1;ratioP1;P1;durP2;ratioP2;P2;SDS_P1;SDS_P2;PMS_P1;PMS_P2;Temp;Humidity;BMP_temperature;BMP_pressure;BME280_temperature;BME280_humidity;BME280_pressure;Samples;Min_cycle;Max_cycle;Signal;HPM_P1;HPM_P2
2021/12/23 00:01:39;;;;;;;48.97;30.33;;;;;;;;;;5012342;28;20117;-61
2021/12/23 00:10:13;;;;;;;62.80;31.33;;;;;;;;;;4998920;28;20045;-63
2021/12/23 00:12:41;;;;;;;55.17;31.33;;;;;;;;;;5002499;28;20112;-63
2021/12/23 00:15:24;;;;;;;49.63;29.23;;;;;;;;;;5010683;28;20026;-63
2021/12/23 00:18:16;;;;;;;61.80;29.47;;;;;;;;;;5011790;28;20109;-62
2021/12/23 00:23:25;;;;;;;50.03;31.33;;;;;;;;;;5012234;28;20038;-63
2021/12/23 00:25:53;;;;;;;43.67;27.50;;;;;;;;;;5012122;28;20076;-62
2021/12/23 00:28:19;;;;;;;51.83;29.47;;;;;;;;;;5011323;28;20026;-62
2021/12/23 00:40:12;;;;;;;45.50;28.13;;;;;;;;;;5000686;28;20571;-62
2021/12/23 00:42:39;;;;;;;50.93;31.13;;;;;;;;;;5011821;28;20033;-62
2021/12/23 00:45:06;;;;;;;54.07;29.67;;;;;;;;;;5019073;28;20049;-61
2021/12/23 00:47:32;;;;;;;50.70;30.00;;;;;;;;;;5015894;28;20026;-62
2021/12/23 00:49:58;;;;;;;47.50;29.67;;;;;;;;;;5016590;28;20030;-62
2021/12/23 00:52:30;;;;;;;48.60;28.63;;;;;;;;;;5008510;28;20750;-63
2021/12/23 00:54:56;;;;;;;54.20;30.33;;;;;;;;;;5017843;28;20014;-63
2021/12/23 00:57:30;;;;;;;57.67;28.93;;;;;;;;;;5015275;28;20495;-62
2021/12/23 00:59:57;;;;;;;55.40;31.07;;;;;;;;;;5012191;28;20037;-63
2021/12/23 01:02:26;;;;;;;58.70;31.70;;;;;;;;;;5015544;28;20084;-62
2021/12/23 01:04:52;;;;;;;62.00;33.37;;;;;;;;;;5014904;28;20414;-62
2021/12/23 01:07:18;;;;;;;55.53;31.67;;;;;;;;;;5014926;28;20479;-62
2021/12/23 01:09:44;;;;;;;56.47;31.03;;;;;;;;;;4998216;28;20116;-62
2021/12/23 01:12:13;;;;;;;57.73;30.93;;;;;;;;;;5014475;28;20037;-62
2021/12/23 01:14:43;;;;;;;67.43;34.17;;;;;;;;;;5008899;28;20050;-62
2021/12/23 01:17:29;;;;;;;61.53;33.67;;;;;;;;;;5015895;28;20018;-63
2021/12/23 01:19:57;;;;;;;60.37;32.33;;;;;;;;;;4998734;28;20034;-62
2021/12/23 01:22:23;;;;;;;55.93;31.70;;;;;;;;;;5011542;28;20053;-62
2021/12/23 01:24:58;;;;;;;72.07;33.67;;;;;;;;;;5018447;28;20042;-63
2021/12/23 01:27:24;;;;;;;;;;;;;;;;;;5010369;28;20022;-62
2021/12/23 01:32:55;;;;;;;60.60;32.50;;;;;;;;;;5004327;28;20411;-63
2021/12/23 01:35:21;;;;;;;66.43;32.40;;;;;;;;;;5008687;28;20022;-62
2021/12/23 01:37:47;;;;;;;64.07;30.17;;;;;;;;;;5015361;28;20033;-62
2021/12/23 01:43:17;;;;;;;59.73;31.30;;;;;;;;;;4998776;28;20057;-63
2021/12/23 01:45:47;;;;;;;57.00;31.37;;;;;;;;;;5015140;28;20467;-63
2021/12/23 01:48:14;;;;;;;64.83;31.03;;;;;;;;;;5014579;28;20038;-63
2021/12/23 01:50:40;;;;;;;58.93;31.03;;;;;;;;;;5013354;28;20471;-63
2021/12/23 01:53:06;;;;;;;63.03;29.07;;;;;;;;;;5012583;28;20147;-62
2021/12/23 01:55:35;;;;;;;57.73;30.13;;;;;;;;;;5013131;28;20041;-63
2021/12/23 01:58:01;;;;;;;61.67;29.40;;;;;;;;;;5003945;28;20080;-63
2021/12/23 02:00:28;;;;;;;62.40;30.43;;;;;;;;;;4999070;28;20099;-63
2021/12/23 02:02:55;;;;;;;55.47;30.57;;;;;;;;;;5011403;28;20037;-62
2021/12/23 02:05:21;;;;;;;50.93;29.27;;;;;;;;;;5014248;28;20026;-62
2021/12/23 02:07:47;;;;;;;62.03;29.60;;;;;;;;;;5012016;28;20048;-62
2021/12/23 02:10:13;;;;;;;58.37;29.97;;;;;;;;;;5014291;28;20034;-63
2021/12/23 02:12:44;;;;;;;57.50;29.63;;;;;;;;;;5013694;28;20033;-63
2021/12/23 02:15:10;;;;;;;59.60;28.80;;;;;;;;;;4996705;28;20523;-62
2021/12/23 02:17:36;;;;;;;55.07;29.33;;;;;;;;;;5012894;28;20025;-62
2021/12/23 02:20:03;;;;;;;59.13;28.53;;;;;;;;;;5013956;28;20045;-61
2021/12/23 02:22:29;;;;;;;52.40;27.73;;;;;;;;;;4995104;28;20033;-62
2021/12/23 02:24:55;;;;;;;52.00;27.70;;;;;;;;;;5014460;28;20464;-62
2021/12/23 02:27:21;;;;;;;46.63;26.80;;;;;;;;;;5013286;28;20388;-61
2021/12/23 02:29:47;;;;;;;48.43;26.60;;;;;;;;;;5010790;28;20383;-62
2021/12/23 02:32:13;;;;;;;50.63;26.33;;;;;;;;;;5018022;28;20030;-62
2021/12/23 02:34:39;;;;;;;53.83;27.60;;;;;;;;;;5013326;28;20080;-62
2021/12/23 02:37:06;;;;;;;52.23;28.37;;;;;;;;;;5013234;28;20084;-62
2021/12/23 02:39:32;;;;;;;56.70;27.33;;;;;;;;;;5013744;28;20068;-62
2021/12/23 02:41:58;;;;;;;56.13;28.13;;;;;;;;;;5013277;28;20049;-62
2021/12/23 02:44:24;;;;;;;48.60;26.70;;;;;;;;;;5001827;28;20072;-63
2021/12/23 02:46:50;;;;;;;52.97;26.17;;;;;;;;;;5013497;28;20030;-62
2021/12/23 02:49:17;;;;;;;51.10;25.53;;;;;;;;;;5012610;28;20109;-62
2021/12/23 02:51:43;;;;;;;51.77;26.87;;;;;;;;;;4996704;28;20376;-62
2021/12/23 02:54:09;;;;;;;47.43;27.57;;;;;;;;;;5013456;28;20115;-62
2021/12/23 02:56:35;;;;;;;53.53;28.63;;;;;;;;;;5014151;28;20026;-62
2021/12/23 02:59:02;;;;;;;43.33;24.67;;;;;;;;;;5013537;28;20033;-62
2021/12/23 03:01:28;;;;;;;50.07;26.57;;;;;;;;;;5013771;28;20080;-62
2021/12/23 03:03:55;;;;;;;52.60;28.33;;;;;;;;;;5012704;28;20045;-62
2021/12/23 03:06:22;;;;;;;48.73;26.77;;;;;;;;;;4995076;28;20120;-62
2021/12/23 03:08:52;;;;;;;56.50;28.03;;;;;;;;;;5012578;28;20468;-62
2021/12/23 03:11:20;;;;;;;60.03;27.17;;;;;;;;;;5013586;28;20036;-62
2021/12/23 03:13:47;;;;;;;54.03;26.07;;;;;;;;;;5002111;28;20064;-62
2021/12/23 03:16:14;;;;;;;56.73;26.70;;;;;;;;;;5008717;28;20026;-62
2021/12/23 03:18:40;;;;;;;48.90;25.80;;;;;;;;;;5012501;28;20037;-62
2021/12/23 03:21:07;;;;;;;42.70;26.23;;;;;;;;;;4995295;28;20052;-62
2021/12/23 03:23:33;;;;;;;47.40;25.27;;;;;;;;;;5001368;28;20033;-62
2021/12/23 03:25:59;;;;;;;45.20;25.87;;;;;;;;;;5017831;28;20041;-62
2021/12/23 03:28:25;;;;;;;47.17;25.97;;;;;;;;;;5012120;28;20038;-62
2021/12/23 03:30:51;;;;;;;58.00;27.43;;;;;;;;;;5013127;28;20498;-62
2021/12/23 03:33:18;;;;;;;48.13;26.03;;;;;;;;;;5010980;28;20070;-62
2021/12/23 03:35:44;;;;;;;49.03;26.67;;;;;;;;;;5025002;28;20127;-62
2021/12/23 03:38:10;;;;;;;47.20;26.57;;;;;;;;;;5016732;28;20116;-62
2021/12/23 03:40:38;;;;;;;44.63;26.57;;;;;;;;;;5013061;28;20038;-62
2021/12/23 03:43:04;;;;;;;53.87;27.43;;;;;;;;;;5009800;28;20083;-62
2021/12/23 03:45:30;;;;;;;44.30;25.47;;;;;;;;;;5007535;28;20135;-61
2021/12/23 03:47:56;;;;;;;43.07;26.97;;;;;;;;;;5008990;28;20108;-62
2021/12/23 03:50:24;;;;;;;47.53;25.57;;;;;;;;;;5002125;28;20061;-62
2021/12/23 03:52:50;;;;;;;51.47;26.23;;;;;;;;;;4998818;28;20026;-62
2021/12/23 03:55:17;;;;;;;43.97;25.40;;;;;;;;;;5004229;28;20034;-62
2021/12/23 03:57:43;;;;;;;52.30;25.00;;;;;;;;;;5008906;28;20033;-62
2021/12/23 04:00:11;;;;;;;50.80;25.77;;;;;;;;;;5012570;28;20403;-62
2021/12/23 04:02:37;;;;;;;51.07;25.23;;;;;;;;;;5010900;28;20025;-62
2021/12/23 04:05:06;;;;;;;48.67;25.67;;;;;;;;;;5016013;28;20553;-62
2021/12/23 04:07:32;;;;;;;43.13;24.90;;;;;;;;;;5006407;28;20030;-62
2021/12/23 04:09:58;;;;;;;46.17;24.47;;;;;;;;;;5012509;28;20422;-62
2021/12/23 04:12:24;;;;;;;50.40;25.50;;;;;;;;;;5010732;28;20410;-62
2021/12/23 04:14:51;;;;;;;45.23;26.37;;;;;;;;;;5004073;28;20029;-62
2021/12/23 04:17:17;;;;;;;43.13;24.70;;;;;;;;;;5012759;28;20025;-63
2021/12/23 04:19:46;;;;;;;43.50;25.00;;;;;;;;;;5012214;28;20564;-62
2021/12/23 04:22:12;;;;;;;40.87;24.77;;;;;;;;;;5011019;28;20042;-62
2021/12/23 04:24:38;;;;;;;47.60;24.67;;;;;;;;;;5022491;28;20070;-62
2021/12/23 04:27:04;;;;;;;43.83;25.03;;;;;;;;;;5012742;28;20112;-62
2021/12/23 04:29:30;;;;;;;43.33;24.93;;;;;;;;;;5007271;28;20026;-62
2021/12/23 04:31:57;;;;;;;45.53;23.63;;;;;;;;;;4994889;28;20037;-62
2021/12/23 04:34:23;;;;;;;43.57;25.57;;;;;;;;;;5010471;28;20491;-62
2021/12/23 04:36:49;;;;;;;47.93;24.43;;;;;;;;;;5008382;28;20026;-62
2021/12/23 04:39:15;;;;;;;48.10;24.07;;;;;;;;;;5009855;28;20038;-62
2021/12/23 04:41:41;;;;;;;41.87;23.37;;;;;;;;;;5013010;28;20030;-62
2021/12/23 04:44:07;;;;;;;46.23;23.77;;;;;;;;;;4998930;28;20126;-61
2021/12/23 04:46:33;;;;;;;43.43;23.30;;;;;;;;;;5006777;28;20040;-62
2021/12/23 04:48:59;;;;;;;41.67;23.50;;;;;;;;;;5011639;28;20105;-62
2021/12/23 04:51:25;;;;;;;47.23;24.90;;;;;;;;;;5012826;28;20068;-62
2021/12/23 04:53:51;;;;;;;46.83;24.40;;;;;;;;;;4989421;28;20395;-62
2021/12/23 04:56:18;;;;;;;39.40;23.30;;;;;;;;;;5011572;28;20034;-62
2021/12/23 04:58:44;;;;;;;37.70;23.23;;;;;;;;;;5010239;28;20050;-63
2021/12/23 05:01:19;;;;;;;42.47;23.43;;;;;;;;;;5012113;28;20030;-62
2021/12/23 05:03:47;;;;;;;42.50;24.63;;;;;;;;;;5014174;28;20072;-63
2021/12/23 05:06:13;;;;;;;47.40;24.53;;;;;;;;;;5012817;28;20025;-62
2021/12/23 05:08:44;;;;;;;53.60;24.70;;;;;;;;;;5011517;28;20407;-62
2021/12/23 05:11:10;;;;;;;46.00;24.03;;;;;;;;;;4992307;28;20109;-62
2021/12/23 05:13:36;;;;;;;42.20;23.87;;;;;;;;;;5010160;28;20125;-62
2021/12/23 05:16:02;;;;;;;40.73;24.10;;;;;;;;;;5010607;28;20499;-62
2021/12/23 05:18:28;;;;;;;41.63;23.20;;;;;;;;;;5007508;28;20100;-62
2021/12/23 05:20:54;;;;;;;40.80;21.63;;;;;;;;;;5010121;28;20054;-62
2021/12/23 05:23:20;;;;;;;39.80;22.70;;;;;;;;;;5013160;28;20037;-62
2021/12/23 05:25:46;;;;;;;42.17;21.93;;;;;;;;;;5013709;28;20037;-62
2021/12/23 05:28:13;;;;;;;43.53;24.27;;;;;;;;;;5008336;28;20384;-62
2021/12/23 05:30:40;;;;;;;41.17;22.60;;;;;;;;;;5009802;28;20539;-62
2021/12/23 05:33:06;;;;;;;42.37;22.77;;;;;;;;;;5011873;28;20028;-62
2021/12/23 05:35:32;;;;;;;42.20;24.00;;;;;;;;;;5013831;28;20030;-62
2021/12/23 05:37:58;;;;;;;41.93;23.57;;;;;;;;;;5014468;28;20663;-62
2021/12/23 05:40:25;;;;;;;41.60;24.60;;;;;;;;;;5009491;28;20038;-62
2021/12/23 05:42:52;;;;;;;44.43;23.90;;;;;;;;;;5011301;28;20479;-62
2021/12/23 05:45:18;;;;;;;46.30;23.63;;;;;;;;;;5014336;28;20030;-62
2021/12/23 05:47:45;;;;;;;44.93;23.40;;;;;;;;;;5007660;28;20025;-62
2021/12/23 05:50:12;;;;;;;40.83;22.10;;;;;;;;;;5015322;28;20108;-61
2021/12/23 05:52:38;;;;;;;43.37;23.33;;;;;;;;;;5001735;28;20121;-62
2021/12/23 05:55:05;;;;;;;45.27;23.60;;;;;;;;;;5016805;28;20030;-62
2021/12/23 05:57:31;;;;;;;44.93;23.23;;;;;;;;;;5007827;28;20076;-62
2021/12/23 05:59:57;;;;;;;41.73;23.73;;;;;;;;;;5014536;28;20377;-62
2021/12/23 06:02:23;;;;;;;37.10;21.43;;;;;;;;;;5013817;28;20042;-62
2021/12/23 06:04:49;;;;;;;40.53;22.37;;;;;;;;;;5015293;28;20034;-62
2021/12/23 06:07:15;;;;;;;40.17;23.07;;;;;;;;;;5013971;28;20117;-62
2021/12/23 06:09:41;;;;;;;40.00;21.93;;;;;;;;;;5014466;28;20136;-62
2021/12/23 06:12:08;;;;;;;39.30;22.77;;;;;;;;;;5005687;28;20205;-62
2021/12/23 06:14:34;;;;;;;33.07;20.40;;;;;;;;;;5007879;28;20403;-62
2021/12/23 06:17:01;;;;;;;38.50;20.57;;;;;;;;;;5011576;28;20030;-62
2021/12/23 06:19:27;;;;;;;37.83;20.13;;;;;;;;;;5008686;28;20041;-62
2021/12/23 06:21:53;;;;;;;37.47;21.60;;;;;;;;;;5007073;28;20050;-62
2021/12/23 06:24:19;;;;;;;36.03;19.63;;;;;;;;;;5014415;28;20032;-63
2021/12/23 06:26:45;;;;;;;38.80;21.47;;;;;;;;;;5014112;28;20030;-63
2021/12/23 06:29:11;;;;;;;36.37;20.63;;;;;;;;;;5016372;28;20079;-62
2021/12/23 06:34:41;;;;;;;33.57;18.40;;;;;;;;;;5008896;28;20497;-62
2021/12/23 06:37:07;;;;;;;37.70;20.80;;;;;;;;;;5013591;28;20257;-62
2021/12/23 06:39:33;;;;;;;30.80;19.83;;;;;;;;;;5012664;28;20046;-62
2021/12/23 06:41:59;;;;;;;33.83;20.63;;;;;;;;;;5011223;28;20050;-62
2021/12/23 06:44:25;;;;;;;33.80;19.07;;;;;;;;;;5009922;28;20040;-62
2021/12/23 06:46:51;;;;;;;35.43;20.80;;;;;;;;;;5012869;28;20426;-62
2021/12/23 06:49:18;;;;;;;33.57;19.83;;;;;;;;;;4994858;28;20025;-62
2021/12/23 06:51:45;;;;;;;35.73;20.47;;;;;;;;;;5013445;28;20080;-63
2021/12/23 06:54:13;;;;;;;29.03;18.27;;;;;;;;;;5011516;28;20026;-62
2021/12/23 06:56:40;;;;;;;35.47;19.80;;;;;;;;;;5013573;28;20483;-63
2021/12/23 06:59:06;;;;;;;34.37;19.77;;;;;;;;;;5011834;28;20034;-62
2021/12/23 07:01:32;;;;;;;34.87;20.03;;;;;;;;;;5012567;28;20583;-62
2021/12/23 07:04:07;;;;;;;36.43;20.67;;;;;;;;;;4996087;28;20113;-62
2021/12/23 07:06:35;;;;;;;30.73;19.60;;;;;;;;;;5012841;28;20026;-62
2021/12/23 07:09:03;;;;;;;37.73;21.10;;;;;;;;;;5011198;28;20172;-61
2021/12/23 07:11:29;;;;;;;34.63;20.97;;;;;;;;;;5013191;28;20029;-62
2021/12/23 07:13:55;;;;;;;38.43;22.13;;;;;;;;;;5006885;28;20093;-62
2021/12/23 07:16:21;;;;;;;33.40;20.20;;;;;;;;;;5011180;28;20471;-62
2021/12/23 07:18:47;;;;;;;32.30;19.90;;;;;;;;;;4994524;28;20041;-62
2021/12/23 07:21:13;;;;;;;34.57;21.97;;;;;;;;;;5018830;28;20057;-62
2021/12/23 07:23:39;;;;;;;32.30;20.10;;;;;;;;;;5016259;28;20026;-63
2021/12/23 07:26:05;;;;;;;30.53;19.20;;;;;;;;;;5009825;28;20502;-63
2021/12/23 07:28:31;;;;;;;31.93;19.73;;;;;;;;;;5013082;28;20519;-63
2021/12/23 07:30:57;;;;;;;33.97;20.40;;;;;;;;;;5015014;28;20112;-63
2021/12/23 07:33:23;;;;;;;32.90;20.70;;;;;;;;;;4998571;28;20396;-63
2021/12/23 07:35:49;;;;;;;35.47;20.87;;;;;;;;;;5012836;28;20028;-62
2021/12/23 07:38:16;;;;;;;30.87;19.70;;;;;;;;;;5011566;28;20033;-63
2021/12/23 07:40:42;;;;;;;33.60;21.00;;;;;;;;;;4994167;28;20040;-62
2021/12/23 07:43:31;;;;;;;31.97;19.97;;;;;;;;;;5013118;28;20022;-63
2021/12/23 07:45:57;;;;;;;33.93;20.80;;;;;;;;;;4992153;28;20391;-62
2021/12/23 07:48:23;;;;;;;36.00;22.10;;;;;;;;;;5011395;28;20030;-63
2021/12/23 07:50:49;;;;;;;33.83;21.37;;;;;;;;;;5005323;28;20088;-62
2021/12/23 07:53:15;;;;;;;33.37;21.90;;;;;;;;;;5012357;28;20380;-62
2021/12/23 07:55:42;;;;;;;35.47;22.97;;;;;;;;;;5004968;28;20037;-63
2021/12/23 07:58:09;;;;;;;35.90;22.30;;;;;;;;;;5002929;28;20018;-62
2021/12/23 08:00:35;;;;;;;40.17;23.73;;;;;;;;;;5013300;28;20057;-63
2021/12/23 08:03:02;;;;;;;40.50;24.33;;;;;;;;;;5019004;28;20032;-62
2021/12/23 08:05:28;;;;;;;44.47;24.90;;;;;;;;;;5011413;28;20109;-62
2021/12/23 08:07:55;;;;;;;40.03;24.53;;;;;;;;;;5014680;28;20030;-62
2021/12/23 08:10:21;;;;;;;42.43;24.10;;;;;;;;;;4989009;28;20105;-62
2021/12/23 08:12:47;;;;;;;38.57;23.00;;;;;;;;;;5002258;28;20101;-62
2021/12/23 08:15:13;;;;;;;42.27;25.37;;;;;;;;;;5011574;28;20041;-62
2021/12/23 08:17:39;;;;;;;39.43;24.27;;;;;;;;;;5010755;28;20087;-62
2021/12/23 08:20:06;;;;;;;35.03;23.00;;;;;;;;;;5011110;28;20160;-61
2021/12/23 08:22:32;;;;;;;37.17;22.63;;;;;;;;;;4992557;28;20030;-62
2021/12/23 08:24:58;;;;;;;38.73;24.13;;;;;;;;;;5008776;28;20021;-62
2021/12/23 08:27:27;;;;;;;36.97;23.13;;;;;;;;;;5013639;28;20021;-62
2021/12/23 08:29:53;;;;;;;41.47;25.63;;;;;;;;;;5013104;28;20463;-62
2021/12/23 08:32:20;;;;;;;34.70;23.07;;;;;;;;;;5012450;28;20125;-62
2021/12/23 08:34:46;;;;;;;42.83;24.53;;;;;;;;;;5011334;28;20041;-62
2021/12/23 08:37:12;;;;;;;40.33;25.90;;;;;;;;;;5011190;28;20036;-62
2021/12/23 08:39:39;;;;;;;41.03;25.37;;;;;;;;;;5011283;28;20041;-62
2021/12/23 08:42:05;;;;;;;43.03;25.17;;;;;;;;;;5017697;28;20034;-62
2021/12/23 08:44:31;;;;;;;39.63;25.17;;;;;;;;;;5007512;28;20038;-62
2021/12/23 08:46:57;;;;;;;40.33;26.27;;;;;;;;;;4997735;28;20050;-63
2021/12/23 08:49:23;;;;;;;42.90;25.03;;;;;;;;;;5012879;28;20038;-62
2021/12/23 08:51:49;;;;;;;36.63;24.83;;;;;;;;;;5012099;28;20407;-62
2021/12/23 08:54:16;;;;;;;41.17;24.57;;;;;;;;;;5019798;28;20053;-61
2021/12/23 08:56:42;;;;;;;38.77;24.70;;;;;;;;;;4992968;28;20034;-62
2021/12/23 08:59:09;;;;;;;32.93;23.23;;;;;;;;;;4995737;28;20037;-62
2021/12/23 09:01:35;;;;;;;38.33;24.33;;;;;;;;;;5013452;28;20446;-62
2021/12/23 09:04:01;;;;;;;35.70;23.53;;;;;;;;;;4998224;28;20084;-63
2021/12/23 09:06:27;;;;;;;36.27;23.77;;;;;;;;;;5017520;28;20090;-62
2021/12/23 09:08:54;;;;;;;37.57;24.17;;;;;;;;;;5023898;28;20030;-62
2021/12/23 09:11:20;;;;;;;40.27;25.17;;;;;;;;;;5013693;28;20037;-62
2021/12/23 09:13:46;;;;;;;36.97;24.80;;;;;;;;;;5016268;28;20034;-62
2021/12/23 09:16:12;;;;;;;39.50;25.53;;;;;;;;;;5013753;28;20437;-62
2021/12/23 09:18:39;;;;;;;41.20;27.27;;;;;;;;;;5016057;28;20112;-62
2021/12/23 09:21:05;;;;;;;37.50;24.97;;;;;;;;;;5013637;28;20510;-62
2021/12/23 09:23:31;;;;;;;39.47;25.87;;;;;;;;;;4997349;28;20017;-62
2021/12/23 09:25:57;;;;;;;39.97;26.33;;;;;;;;;;5016094;28;20030;-62
2021/12/23 09:33:38;;;;;;;;;;;;;;;;;;5014255;28;20045;-62
2021/12/23 09:36:04;;;;;;;37.10;24.47;;;;;;;;;;5011864;28;19917;-61
2021/12/23 09:38:30;;;;;;;36.53;24.23;;;;;;;;;;5017059;28;20034;-61
2021/12/23 09:41:08;;;;;;;38.10;25.03;;;;;;;;;;4996874;28;20042;-62
2021/12/23 09:43:36;;;;;;;35.97;25.40;;;;;;;;;;5000597;28;20527;-61
2021/12/23 09:46:03;;;;;;;30.57;23.53;;;;;;;;;;5019174;28;20022;-62
2021/12/23 09:48:30;;;;;;;37.13;25.47;;;;;;;;;;5026807;28;20109;-62
2021/12/23 09:50:58;;;;;;;36.80;25.83;;;;;;;;;;5012581;28;20510;-62
2021/12/23 09:53:25;;;;;;;38.07;27.17;;;;;;;;;;4997465;28;20328;-62
2021/12/23 09:55:51;;;;;;;39.43;26.37;;;;;;;;;;5010386;28;20034;-62
2021/12/23 09:58:17;;;;;;;34.47;25.63;;;;;;;;;;5013144;28;20068;-62
2021/12/23 10:00:45;;;;;;;40.07;27.50;;;;;;;;;;5012797;28;20117;-62
2021/12/23 10:03:12;;;;;;;41.00;27.43;;;;;;;;;;5011690;28;20068;-62
2021/12/23 10:05:40;;;;;;;45.00;28.50;;;;;;;;;;5013512;28;20105;-63
2021/12/23 10:08:07;;;;;;;44.47;29.87;;;;;;;;;;5011100;28;20053;-62
2021/12/23 10:10:59;;;;;;;45.20;29.10;;;;;;;;;;4995593;28;20034;-62
2021/12/23 10:38:24;;;;;;;48.13;32.97;;;;;;;;;;4990351;28;20368;-61
2021/12/23 10:40:51;;;;;;;50.33;32.93;;;;;;;;;;4979388;28;20042;-62
2021/12/23 10:43:21;;;;;;;48.87;31.47;;;;;;;;;;5011241;28;20033;-61
2021/12/23 10:45:55;;;;;;;50.53;33.23;;;;;;;;;;5000288;28;20049;-62
2021/12/23 10:48:22;;;;;;;51.53;32.95;;;;;;;;;;5021219;28;20049;-62
2021/12/23 10:50:52;;;;;;;51.10;33.87;;;;;;;;;;5014423;28;20034;-62
2021/12/23 10:53:37;;;;;;;48.87;33.40;;;;;;;;;;5020458;28;20022;-62
2021/12/23 10:59:00;;;;;;;49.27;32.63;;;;;;;;;;5011145;28;19916;-62
2021/12/23 11:01:26;;;;;;;48.33;33.73;;;;;;;;;;5012736;28;20022;-62
2021/12/23 11:03:53;;;;;;;49.80;33.20;;;;;;;;;;4993208;28;20033;-62
2021/12/23 11:06:25;;;;;;;50.20;33.53;;;;;;;;;;4996234;28;20036;-62
2021/12/23 11:09:14;;;;;;;46.30;32.00;;;;;;;;;;5014474;28;20018;-62
2021/12/23 11:37:06;;;;;;;40.47;28.50;;;;;;;;;;5005466;28;20502;-62
2021/12/23 11:42:15;;;;;;;44.40;30.03;;;;;;;;;;5013860;28;20034;-62
2021/12/23 11:44:42;;;;;;;43.60;29.27;;;;;;;;;;5009412;28;20037;-62
2021/12/23 11:47:14;;;;;;;39.10;27.33;;;;;;;;;;5010394;28;20168;-62
2021/12/23 11:49:43;;;;;;;41.83;26.73;;;;;;;;;;4998480;28;20088;-62
2021/12/23 11:52:10;;;;;;;40.60;27.57;;;;;;;;;;4998328;28;20031;-62
2021/12/23 11:54:37;;;;;;;40.53;27.17;;;;;;;;;;5014972;28;20255;-62
2021/12/23 11:57:08;;;;;;;36.80;26.13;;;;;;;;;;5013092;28;20061;-62
2021/12/23 11:59:37;;;;;;;39.63;27.13;;;;;;;;;;5012674;28;20044;-62
2021/12/23 12:02:11;;;;;;;40.67;27.60;;;;;;;;;;5010491;28;20117;-62
2021/12/23 12:04:37;;;;;;;41.60;27.25;;;;;;;;;;4991897;28;20100;-62
2021/12/23 12:10:07;;;;;;;37.53;26.33;;;;;;;;;;5001220;28;20615;-63
2021/12/23 12:12:34;;;;;;;40.40;27.97;;;;;;;;;;5007246;28;20030;-62
2021/12/23 12:15:00;;;;;;;44.67;28.97;;;;;;;;;;5011945;28;20450;-62
2021/12/23 12:17:26;;;;;;;38.83;26.73;;;;;;;;;;5012773;28;20088;-62
2021/12/23 12:20:04;;;;;;;38.43;26.57;;;;;;;;;;5008690;28;20507;-62
2021/12/23 12:22:49;;;;;;;36.10;25.47;;;;;;;;;;5009459;28;20049;-62
2021/12/23 12:25:24;;;;;;;40.10;27.40;;;;;;;;;;5006509;28;20084;-62
2021/12/23 12:27:56;;;;;;;38.27;26.23;;;;;;;;;;5012992;28;20514;-62
2021/12/23 12:30:35;;;;;;;39.73;28.17;;;;;;;;;;5010727;28;20034;-62
2021/12/23 12:33:05;;;;;;;40.17;26.30;;;;;;;;;;5010529;28;20041;-62
2021/12/23 12:35:31;;;;;;;42.03;26.33;;;;;;;;;;4985713;28;20034;-62
2021/12/23 12:38:16;;;;;;;40.03;26.50;;;;;;;;;;5015225;28;20375;-62
2021/12/23 12:40:59;;;;;;;43.83;28.75;;;;;;;;;;5013976;28;20487;-62
2021/12/23 12:43:54;;;;;;;43.23;29.67;;;;;;;;;;5012563;28;20044;-62
2021/12/23 12:46:39;;;;;;;41.55;27.67;;;;;;;;;;5008519;28;20025;-62
2021/12/23 12:49:09;;;;;;;;;;;;;;;;;;5012999;28;20360;-62
2021/12/23 12:51:37;;;;;;;44.13;29.00;;;;;;;;;;5015918;28;20327;-62
2021/12/23 12:54:06;;;;;;;48.37;29.80;;;;;;;;;;5014835;28;20483;-62
2021/12/23 12:56:34;;;;;;;48.27;31.20;;;;;;;;;;5021191;28;20030;-63
2021/12/23 12:59:00;;;;;;;53.67;33.40;;;;;;;;;;5012784;28;20022;-62
2021/12/23 13:01:33;;;;;;;55.93;35.47;;;;;;;;;;5008779;28;20046;-62
2021/12/23 13:04:00;;;;;;;58.20;36.17;;;;;;;;;;4997536;28;20113;-62
2021/12/23 13:06:41;;;;;;;58.07;35.60;;;;;;;;;;5020488;28;20033;-62
2021/12/23 13:09:12;;;;;;;54.77;34.67;;;;;;;;;;5016718;28;21190;-62
2021/12/23 13:11:42;;;;;;;56.30;35.67;;;;;;;;;;4997048;28;20026;-62
2021/12/23 13:14:14;;;;;;;59.43;37.30;;;;;;;;;;5012675;28;20080;-62
2021/12/23 13:16:50;;;;;;;71.67;39.73;;;;;;;;;;4997143;28;20084;-62
2021/12/23 13:19:19;;;;;;;64.27;39.70;;;;;;;;;;5010419;28;20033;-62
2021/12/23 13:21:50;;;;;;;59.10;40.07;;;;;;;;;;5012664;28;20081;-62
2021/12/23 13:24:21;;;;;;;64.03;39.63;;;;;;;;;;5009660;28;20503;-61
2021/12/23 13:26:48;;;;;;;62.93;39.03;;;;;;;;;;4996983;28;20032;-62
2021/12/23 13:29:14;;;;;;;61.97;39.53;;;;;;;;;;5013437;28;20042;-61
2021/12/23 13:31:41;;;;;;;65.37;40.37;;;;;;;;;;5011607;28;20026;-62
2021/12/23 13:34:10;;;;;;;69.67;42.80;;;;;;;;;;5013170;28;20117;-61
2021/12/23 13:36:39;;;;;;;65.13;41.17;;;;;;;;;;5015312;28;20415;-61
2021/12/23 13:39:07;;;;;;;62.87;39.50;;;;;;;;;;5014986;28;20323;-62
2021/12/23 13:41:36;;;;;;;60.40;38.30;;;;;;;;;;5014073;28;20057;-61
2021/12/23 13:44:18;;;;;;;66.77;41.60;;;;;;;;;;5013374;28;20072;-61
2021/12/23 13:47:04;;;;;;;67.33;40.87;;;;;;;;;;5013105;28;20064;-62
2021/12/23 13:49:33;;;;;;;72.90;44.23;;;;;;;;;;5015477;28;20059;-62
2021/12/23 13:51:59;;;;;;;66.37;41.67;;;;;;;;;;5012070;28;20021;-62
2021/12/23 13:54:32;;;;;;;69.83;44.00;;;;;;;;;;5014326;28;20554;-62
2021/12/23 13:56:58;;;;;;;67.30;41.03;;;;;;;;;;5013612;28;20068;-62
2021/12/23 13:59:26;;;;;;;71.27;42.00;;;;;;;;;;4996251;28;20515;-62
2021/12/23 14:01:58;;;;;;;68.90;42.03;;;;;;;;;;5012026;28;20490;-62
2021/12/23 14:04:38;;;;;;;67.13;41.90;;;;;;;;;;4995688;28;20478;-62
2021/12/23 14:07:21;;;;;;;63.40;39.93;;;;;;;;;;5007900;28;20037;-62
2021/12/23 14:09:51;;;;;;;60.17;38.33;;;;;;;;;;5012908;28;20061;-62
2021/12/23 14:12:21;;;;;;;63.13;40.20;;;;;;;;;;5012223;28;20521;-62
2021/12/23 14:15:01;;;;;;;60.97;38.77;;;;;;;;;;5014774;28;20494;-62
2021/12/23 14:17:35;;;;;;;58.13;36.97;;;;;;;;;;5013201;28;20080;-62
2021/12/23 14:25:38;;;;;;;49.75;32.40;;;;;;;;;;5012527;28;20076;-62
2021/12/23 14:28:04;;;;;;;49.90;33.67;;;;;;;;;;5012819;28;20471;-62
2021/12/23 14:30:34;;;;;;;49.30;32.63;;;;;;;;;;5030156;28;20025;-62
2021/12/23 14:33:13;;;;;;;52.93;33.97;;;;;;;;;;5010971;28;20037;-62
2021/12/23 14:35:40;;;;;;;44.17;30.50;;;;;;;;;;4997055;28;20027;-62
2021/12/23 14:38:06;;;;;;;50.67;31.53;;;;;;;;;;5013318;28;20034;-62
2021/12/23 14:40:32;;;;;;;47.97;31.03;;;;;;;;;;5013696;28;20048;-62
2021/12/23 14:43:02;;;;;;;46.37;31.33;;;;;;;;;;5011959;28;20484;-62
2021/12/23 14:45:28;;;;;;;46.20;30.60;;;;;;;;;;5013963;28;20061;-61
2021/12/23 14:47:58;;;;;;;45.63;29.13;;;;;;;;;;4995070;28;20116;-62
2021/12/23 14:50:25;;;;;;;45.57;31.23;;;;;;;;;;4996234;28;20476;-62
2021/12/23 14:52:56;;;;;;;44.77;29.47;;;;;;;;;;5013745;28;20037;-61
2021/12/23 14:55:23;;;;;;;45.77;29.33;;;;;;;;;;5014145;28;20084;-62
2021/12/23 14:57:53;;;;;;;47.33;31.70;;;;;;;;;;5008063;28;20037;-63
2021/12/23 15:00:19;;;;;;;41.30;28.37;;;;;;;;;;5013886;28;20045;-62
2021/12/23 15:02:46;;;;;;;48.40;31.07;;;;;;;;;;4994157;28;20376;-62
2021/12/23 15:08:43;;;;;;;47.20;30.17;;;;;;;;;;5001913;28;20037;-62
2021/12/23 15:11:10;;;;;;;40.87;27.33;;;;;;;;;;5003825;28;20053;-63
2021/12/23 15:13:45;;;;;;;45.87;30.10;;;;;;;;;;5009788;28;20522;-63
2021/12/23 15:16:12;;;;;;;52.70;32.23;;;;;;;;;;4996525;28;20119;-63
2021/12/23 15:21:10;;;;;;;44.93;30.37;;;;;;;;;;5009740;28;20145;-62
2021/12/23 15:23:41;;;;;;;46.00;30.60;;;;;;;;;;4994734;28;20424;-62
2021/12/23 15:26:24;;;;;;;47.30;31.27;;;;;;;;;;5006869;28;20121;-62
2021/12/23 15:29:09;;;;;;;47.50;31.10;;;;;;;;;;5006877;28;20489;-63
2021/12/23 15:31:35;;;;;;;47.53;31.58;;;;;;;;;;5010994;28;20034;-63
2021/12/23 15:34:06;;;;;;;45.63;29.77;;;;;;;;;;5011920;28;20096;-63
2021/12/23 15:36:32;;;;;;;47.47;31.10;;;;;;;;;;5008776;28;20030;-62
2021/12/23 15:38:58;;;;;;;49.53;32.13;;;;;;;;;;5008477;28;20531;-63
2021/12/23 15:41:24;;;;;;;50.50;33.37;;;;;;;;;;5008277;28;21603;-62
2021/12/23 15:43:50;;;;;;;52.30;33.97;;;;;;;;;;5012056;28;20033;-62
2021/12/23 15:46:16;;;;;;;53.10;32.53;;;;;;;;;;5025418;28;20025;-61
2021/12/23 15:48:42;;;;;;;51.03;30.93;;;;;;;;;;5011171;28;20084;-63
2021/12/23 15:51:08;;;;;;;52.53;32.57;;;;;;;;;;5010415;28;20028;-62
2021/12/23 15:53:34;;;;;;;49.53;31.63;;;;;;;;;;5010052;28;20160;-62
2021/12/23 15:56:01;;;;;;;45.53;29.40;;;;;;;;;;5009408;28;20033;-62
2021/12/23 15:58:33;;;;;;;54.73;31.40;;;;;;;;;;5010775;28;20029;-62
2021/12/23 16:00:59;;;;;;;45.40;30.00;;;;;;;;;;5004167;28;20076;-62
2021/12/23 16:03:26;;;;;;;47.10;30.83;;;;;;;;;;5004063;28;20427;-63
2021/12/23 16:08:37;;;;;;;46.67;30.58;;;;;;;;;;5010168;28;20040;-62
2021/12/23 16:11:05;;;;;;;52.63;30.73;;;;;;;;;;4990024;28;20060;-62